Bei Facebook empfehlenBei Twitter postenGoogle plusPinterest

Das Wetter im Erzgebirge am 17.02.2015

Wetter und Klima am 17.02.2015 Holzhau im Erzgebirge (630m ü.NN)
Letzte gemessene Temperatur und Uhrzeit der Messung23:45:00 Uhr-1.10 °C
Temperatur (Maximum / Höchstwert) und Uhrzeit der Messung13:00:00 Uhr4.40 °C
Temperatur (Minimum / Tiefstwert) und Uhrzeit der Messung06:00:00-3.60 °C
Errechneter Absolutwert der Temperaturschwankungen zwischen Tmin und Tmax des Tages8.00 K
Errechnete Tagesmitteltemperatur-0.34167 °C
Gesamt - Niederschlag des Tages (in flüssiger Form)0.00 Liter / m²
Luftdruck (Maximum / Höchstwert) und Zeitpunkt der Messung23:45:00 Uhr1032.90 hPa
Luftdruck (Minimum / Tiefstwert) und Zeitpunkt der Messung00:00:00 Uhr1019.90 hPa
Errechneter Absolutwert der Luftdruckschwankungen des Tages13.00 hPa
Höchste gemessene Windgeschwindigkeit und Uhrzeit der Messung14:15:00 Uhr183.60 km/h
Errechnete Windhäufigkeit in Relation zu den Messwerten des Tages6.25000 %
Niedrigste Windkühle (Windchill) und Zeitpunkt der Messung14:15:00 Uhr-7.20 °C
Taupunkt (Maximum / Höchstwert) und Uhrzeit der Messung13:00:00 Uhr0.00 °C
Taupunkt (Minimum / Tiefstwert) und Uhrzeit der Messung06:00:00-5.30 °C
Anzahl der automatisch eingelesenen Messwerte 96

Detaillierte Wetter- und Klima- Messwerte für den 17.02.2015 in Holzhau im Erzgebirge (630m ü.NN)
ZeitTemperaturLuftdruckRel. LuftfeuchteWindWindrichtungWindchillTaupunktNiederschlag l/m²
23:45:00-1.10 °C1032.90 hPa92.00 %-2.40 °C 
23:30:00-1.20 °C1032.80 hPa92.00 %-2.50 °C 
23:15:00-1.20 °C1032.80 hPa92.00 %-2.50 °C 
23:00:00-1.10 °C1032.80 hPa92.00 %-2.40 °C 
22:45:00-1.20 °C1032.70 hPa92.00 %-2.50 °C 
22:30:00-1.20 °C1032.60 hPa92.00 %-2.50 °C 
22:15:00-1.20 °C1032.40 hPa91.00 %-2.60 °C 
22:00:00-1.30 °C1032.60 hPa91.00 %-2.70 °C 
21:45:00-1.40 °C1032.50 hPa91.00 %-2.80 °C 
21:30:00-1.50 °C1032.20 hPa91.00 %-2.90 °C 
21:15:00-1.50 °C1031.90 hPa91.00 %-2.90 °C 
21:00:00-1.60 °C1031.90 hPa91.00 %-3.00 °C 
20:45:00-1.60 °C1031.70 hPa91.00 %-3.00 °C 
20:30:00-1.70 °C1031.70 hPa91.00 %-3.10 °C 
20:15:00-1.70 °C1031.50 hPa91.00 %-3.10 °C 
20:00:00-1.70 °C1031.10 hPa90.00 %-3.30 °C 
19:45:00-1.80 °C1031.20 hPa89.00 %-3.60 °C 
19:30:00-2.00 °C1030.90 hPa89.00 %-3.80 °C 
19:15:00-2.10 °C1030.60 hPa89.00 %-3.90 °C 
19:00:00-2.50 °C1030.50 hPa88.00 %-4.40 °C 
18:45:00-2.90 °C1030.40 hPa87.00 %-5.00 °C 
18:30:00-2.90 °C1030.00 hPa86.00 %-5.10 °C 
18:15:00-2.60 °C1029.80 hPa86.00 %-4.90 °C 
18:00:00-2.40 °C1029.60 hPa84.00 %-5.00 °C 
17:45:00-1.90 °C1029.20 hPa84.00 %-4.50 °C 
17:30:00-1.50 °C1029.00 hPa82.00 %-4.50 °C 
17:15:00-0.80 °C1028.70 hPa81.00 %-4.00 °C 
17:00:000.00 °C1028.80 hPa79.00 %-3.60 °C 
16:45:001.00 °C1028.60 hPa77.00 %-2.60 °C 
16:30:001.60 °C1028.20 hPa77.00 %-2.00 °C 
16:15:002.20 °C1028.00 hPa76.00 %-1.60 °C 
16:00:002.60 °C1028.20 hPa75.00 %-1.40 °C 
15:45:002.90 °C1028.10 hPa75.00 %-1.10 °C 
15:30:003.10 °C1028.00 hPa75.00 %-0.90 °C 
15:15:003.00 °C1028.00 hPa75.00 %-1.00 °C 
15:00:003.00 °C1027.90 hPa74.00 %-1.20 °C 
14:45:003.10 °C1027.80 hPa74.00 %8.28 km/hSSO0.80 °C-1.10 °C 
14:30:003.40 °C1027.60 hPa73.00 %-1.00 °C 
14:15:003.80 °C1027.50 hPa72.00 %183.60 km/hSW-7.20 °C-0.80 °C 
14:00:003.90 °C1027.30 hPa72.00 %-0.70 °C 
13:45:004.10 °C1027.30 hPa72.00 %6.84 km/hS2.40 °C-0.50 °C 
13:30:003.90 °C1027.20 hPa72.00 %-0.70 °C 
13:15:004.10 °C1027.10 hPa72.00 %-0.50 °C 
13:00:004.40 °C1026.90 hPa73.00 %0.00 °C 
12:45:004.20 °C1026.60 hPa72.00 %10.80 km/hS1.50 °C-0.40 °C 
12:30:004.10 °C1026.50 hPa73.00 %-0.30 °C 
12:15:004.10 °C1026.40 hPa74.00 %-0.10 °C 
12:00:003.60 °C1026.30 hPa75.00 %-0.40 °C 
11:45:003.50 °C1025.90 hPa75.00 %-0.50 °C 
11:30:003.50 °C1025.70 hPa75.00 %-0.50 °C 
11:15:003.50 °C1025.50 hPa77.00 %-0.10 °C 
11:00:003.30 °C1025.40 hPa79.00 %0.00 °C 
10:45:003.00 °C1025.30 hPa79.00 %-0.30 °C 
10:30:002.60 °C1025.00 hPa81.00 %-0.30 °C 
10:15:002.10 °C1025.00 hPa84.00 %-0.30 °C 
10:00:001.40 °C1024.80 hPa86.00 %-0.70 °C 
09:45:000.70 °C1024.60 hPa88.00 %-1.10 °C 
09:30:00-0.20 °C1024.60 hPa89.00 %3.24 km/hNO-0.20 °C-2.00 °C 
09:15:00-1.10 °C1024.30 hPa90.00 %-2.70 °C 
09:00:00-1.80 °C1024.20 hPa91.00 %-3.20 °C 
08:45:00-2.40 °C1024.00 hPa90.00 %-4.00 °C 
08:30:00-2.80 °C1023.80 hPa90.00 %-4.40 °C 
08:15:00-3.00 °C1023.40 hPa90.00 %-4.60 °C 
08:00:00-3.10 °C1023.30 hPa90.00 %-4.70 °C 
07:45:00-3.20 °C1023.10 hPa90.00 %-4.80 °C 
07:30:00-3.20 °C1022.80 hPa90.00 %-4.80 °C 
07:15:00-3.20 °C1022.60 hPa90.00 %-4.80 °C 
07:00:00-3.10 °C1022.40 hPa90.00 %-4.70 °C 
06:45:00-3.30 °C1022.10 hPa90.00 %-4.90 °C 
06:30:00-3.40 °C1022.00 hPa90.00 %-5.00 °C 
06:15:00-3.40 °C1021.80 hPa90.00 %-5.00 °C 
06:00:00-3.60 °C1021.80 hPa89.00 %-5.30 °C 
05:45:00-3.40 °C1021.60 hPa89.00 %-5.10 °C 
05:30:00-3.30 °C1021.50 hPa89.00 %-5.00 °C 
05:15:00-3.20 °C1021.40 hPa88.00 %-5.10 °C 
05:00:00-2.90 °C1021.30 hPa88.00 %-4.80 °C 
04:45:00-2.40 °C1021.50 hPa88.00 %-4.30 °C 
04:30:00-2.10 °C1021.30 hPa88.00 %-4.00 °C 
04:15:00-1.70 °C1021.10 hPa87.00 %-3.80 °C 
04:00:00-1.40 °C1020.80 hPa87.00 %-3.50 °C 
03:45:00-1.20 °C1020.60 hPa88.00 %-3.10 °C 
03:30:00-1.10 °C1020.80 hPa88.00 %-3.00 °C 
03:15:00-0.90 °C1020.80 hPa88.00 %-2.80 °C 
03:00:00-0.90 °C1020.60 hPa88.00 %-2.80 °C 
02:45:00-1.20 °C1020.60 hPa88.00 %-3.10 °C 
02:30:00-1.10 °C1020.50 hPa88.00 %-3.00 °C 
02:15:00-1.20 °C1020.70 hPa87.00 %-3.30 °C 
02:00:00-0.90 °C1020.60 hPa87.00 %-3.00 °C 
01:45:00-0.80 °C1020.40 hPa87.00 %-2.90 °C 
01:30:00-0.90 °C1020.50 hPa88.00 %-2.80 °C 
01:15:00-1.00 °C1020.40 hPa88.00 %6.12 km/hONO-3.20 °C-2.90 °C 
01:00:00-0.90 °C1020.30 hPa88.00 %-2.80 °C 
00:45:00-1.00 °C1020.10 hPa88.00 %-2.90 °C 
00:30:00-1.10 °C1020.20 hPa87.00 %-3.20 °C 
00:15:00-0.90 °C1020.00 hPa87.00 %-3.00 °C 
00:00:00-0.60 °C1019.90 hPa87.00 %-2.70 °C 

Permanenter Link zu dieser Seite: Wetter im Erzgebirge am 17.02.2015
Performance-Info: Die Erstellung der Seite / Statistik(en) / Tabelle(n) erforderte 5 Datenbankserver-Abfrage(n) und dauerte 99 Millisekunden. (Dieser Messwert ist von der Gesamt-Auslastung des Servers abhängig.)
Erzgebirge - Wetter | Erzgebirge - Wetter (Mobilgeräte) | Komplette Klimadatenbank